Weather reports worldwide

Advertisment
Dunstaffnage, United Kingdom (99006): temperature & dewpoint: 17.05.2018 02:00:00 - 23.05.2018 02:00:00 (BST)Dunstaffnage, United Kingdom (99006): temperature -20cm: 17.05.2018 02:00:00 - 23.05.2018 02:00:00 (BST)Dunstaffnage, United Kingdom (99006): wind speed: 17.05.2018 02:00:00 - 23.05.2018 02:00:00 (BST)Dunstaffnage, United Kingdom (99006): wind direction: 17.05.2018 02:00:00 - 23.05.2018 02:00:00 (BST)Dunstaffnage, United Kingdom (99006): precipitation: 17.05.2018 02:00:00 - 23.05.2018 02:00:00 (BST)
Date & Time tt [°C] td [°C] tt -20cm [°C] ff [km/h] ff [kn] dd rr [mm]
23.05.2018 02:00:00 10,1 9,0 - 2 1 S 0,0
23.05.2018 01:00:00 10,4 9,0 - 4 2 W 0,0
23.05.2018 00:00:00 10,7 9,1 - 2 1 WSW 0,0
22.05.2018 23:00:00 11,4 9,3 - 2 1 SSE 0,0
22.05.2018 22:00:00 11,9 8,5 - 2 1 S 0,0
22.05.2018 21:00:00 12,5 8,5 - 4 2 ENE 0,0
22.05.2018 20:00:00 13,2 8,9 - 4 2 WNW 0,0
22.05.2018 19:00:00 13,5 8,5 - 9 5 N 0,0
22.05.2018 18:00:00 13,7 8,1 - 13 7 N 0,0
22.05.2018 17:00:00 14,8 8,7 - 11 6 N 0,0
22.05.2018 16:00:00 12,8 7,4 - 11 6 N 0,0
22.05.2018 15:00:00 12,7 7,5 - 9 5 NNE 0,0
22.05.2018 14:00:00 13,6 8,6 - 5 3 N 0,0
22.05.2018 13:00:00 12,9 7,9 - 4 2 N 0,0
22.05.2018 12:00:00 11,2 7,7 - 4 2 NNE 0,0
22.05.2018 11:00:00 10,0 6,8 - 8 4 NNE 0,0
22.05.2018 10:00:00 9,6 6,4 11,7 8 4 N 0,0
22.05.2018 09:00:00 9,2 6,1 - 9 5 N 0,0
22.05.2018 08:00:00 8,9 6,0 - 9 5 N 0,0
22.05.2018 07:00:00 8,5 6,0 - 11 6 N 0,0
22.05.2018 06:00:00 8,2 5,7 - 11 6 N 0,0
22.05.2018 05:00:00 7,9 5,7 - 13 7 N 0,0
22.05.2018 04:00:00 8,3 5,9 - 11 6 N 0,0
22.05.2018 03:00:00 8,2 5,5 - 13 7 N 0,0
22.05.2018 02:00:00 8,1 5,8 - 11 6 N 0,0
22.05.2018 01:00:00 8,2 6,3 - 11 6 NNE 0,0
22.05.2018 00:00:00 8,6 6,7 - 15 8 NNE 0,0
21.05.2018 23:00:00 8,8 6,9 - 11 6 N 0,0
21.05.2018 22:00:00 8,8 7,3 - 5 3 N 0,0
21.05.2018 21:00:00 8,8 7,1 - 5 3 N 0,6
21.05.2018 20:00:00 8,8 7,2 - 5 3 NNE 0,8
21.05.2018 19:00:00 8,7 7,3 - 16 9 WNW 0,6
21.05.2018 18:00:00 9,3 7,3 - 15 8 WNW 0,0
21.05.2018 17:00:00 9,9 8,1 - 9 5 W 0,0
21.05.2018 16:00:00 9,5 8,1 - 5 3 WNW 0,0
21.05.2018 15:00:00 9,7 8,2 - 4 2 WSW 0,0
21.05.2018 14:00:00 9,4 8,4 - 9 5 NW 0,2
21.05.2018 13:00:00 9,6 9,1 - 15 8 WNW 0,8
21.05.2018 12:00:00 11,0 10,6 - 8 4 E 0,8
21.05.2018 11:00:00 10,9 10,5 - 5 3 ESE 0,4
21.05.2018 10:00:00 10,6 10,0 12,7 8 4 ENE 1,8
21.05.2018 09:00:00 10,2 9,4 - 5 3 WNW 0,6
21.05.2018 08:00:00 10,9 10,0 - 4 2 SW 0,0
21.05.2018 07:00:00 10,9 9,9 - 5 3 S 0,6
21.05.2018 06:00:00 10,7 10,0 - 4 2 SE 1,6
21.05.2018 05:00:00 10,9 10,0 - 9 5 E 1,2
21.05.2018 04:00:00 11,1 10,3 - 9 5 E 0,2
21.05.2018 03:00:00 10,6 9,9 - 13 7 E 0,6
21.05.2018 02:00:00 10,7 9,9 - 9 5 ESE 0,4
21.05.2018 01:00:00 10,4 9,7 - 8 4 E 1,8
21.05.2018 00:00:00 10,7 9,8 - 8 4 E 1,4
20.05.2018 23:00:00 11,4 10,4 - 13 7 ESE 0,4
20.05.2018 22:00:00 11,2 9,9 - 8 4 E 0,2
20.05.2018 21:00:00 11,7 10,1 - 8 4 ESE 0,0
20.05.2018 20:00:00 12,4 10,5 - 4 2 E 0,0
20.05.2018 19:00:00 12,8 10,9 - 16 9 ESE 0,0
20.05.2018 18:00:00 12,7 11,3 - 15 8 ESE 0,0
20.05.2018 17:00:00 12,6 11,4 - 11 6 SE 1,0
20.05.2018 16:00:00 12,4 11,5 - 11 6 E 1,0
20.05.2018 15:00:00 12,6 11,5 - 9 5 S 1,2
20.05.2018 14:00:00 12,7 11,5 - 13 7 S 0,6
20.05.2018 13:00:00 12,9 11,8 - 11 6 S 0,6
20.05.2018 12:00:00 12,8 11,8 - 9 5 SSE 1,2
20.05.2018 11:00:00 12,4 10,9 - 9 5 S 0,8
20.05.2018 10:00:00 12,3 10,7 12,9 13 7 S 0,4
20.05.2018 09:00:00 12,1 10,3 - 13 7 S 0,2
20.05.2018 08:00:00 12,6 8,6 - 9 5 SSE 0,0
20.05.2018 07:00:00 12,4 8,5 - 13 7 S 0,0
20.05.2018 06:00:00 12,3 8,1 - 15 8 SSE 0,0
20.05.2018 05:00:00 12,3 7,9 - 9 5 S 0,0
20.05.2018 04:00:00 12,4 8,3 - 11 6 SSE 0,0
20.05.2018 03:00:00 13,0 7,9 - 16 9 S 0,0
20.05.2018 02:00:00 13,0 8,0 - 13 7 S 0,0
20.05.2018 01:00:00 13,5 7,6 - 11 6 S 0,0
20.05.2018 00:00:00 14,0 7,6 - 18 10 SSE 0,0
19.05.2018 23:00:00 14,0 7,6 - 13 7 SE 0,0
19.05.2018 22:00:00 14,4 7,1 - 11 6 SE 0,0
19.05.2018 21:00:00 15,2 6,4 - 16 9 S 0,0
19.05.2018 20:00:00 15,9 5,7 - 15 8 S 0,0
19.05.2018 19:00:00 16,6 6,4 - 11 6 S 0,0
19.05.2018 18:00:00 17,6 6,7 - 21 11 S 0,0
19.05.2018 17:00:00 18,5 6,7 - 16 9 S 0,0
19.05.2018 16:00:00 18,9 6,7 - 24 13 S 0,0
19.05.2018 15:00:00 19,3 6,8 - 18 10 S 0,0
19.05.2018 14:00:00 19,4 7,5 - 16 9 S 0,0
19.05.2018 13:00:00 18,7 7,0 - 22 12 SSW 0,0
19.05.2018 12:00:00 14,6 7,8 - 13 7 WNW 0,0
19.05.2018 11:00:00 13,0 7,4 - 9 5 WNW 0,0
19.05.2018 10:00:00 12,3 8,5 12,7 8 4 W 0,0
19.05.2018 09:00:00 11,4 7,7 - 4 2 NW 0,0
19.05.2018 08:00:00 11,5 8,5 - 2 1 E 0,0
19.05.2018 07:00:00 10,3 8,8 - 2 1 ESE 0,0
19.05.2018 06:00:00 9,5 8,2 - 8 4 WSW 0,0
19.05.2018 05:00:00 8,7 7,5 - 2 1 SE 0,0
19.05.2018 04:00:00 9,0 7,0 - 2 1 WSW 0,0
19.05.2018 03:00:00 10,4 7,9 - 4 2 ENE 0,0
19.05.2018 02:00:00 10,6 8,4 - 8 4 ESE 0,0
19.05.2018 01:00:00 10,2 7,7 - 2 1 NE 0,0
19.05.2018 00:00:00 10,7 7,6 - 2 1 ESE 0,0
18.05.2018 23:00:00 10,2 7,9 - 2 1 ENE 0,0
18.05.2018 22:00:00 10,2 6,7 - 5 3 SSW 0,0
18.05.2018 21:00:00 11,1 6,6 - 9 5 SSW 0,0
18.05.2018 20:00:00 13,2 6,9 - 9 5 SW 0,0
18.05.2018 19:00:00 15,6 8,7 - 11 6 WSW 0,0
18.05.2018 18:00:00 15,8 8,8 - 11 6 WSW 0,0
18.05.2018 17:00:00 14,7 7,7 - 16 9 WSW 0,0
18.05.2018 16:00:00 16,5 9,5 - 13 7 W 0,0
18.05.2018 15:00:00 15,1 9,0 - 16 9 W 0,0
18.05.2018 14:00:00 13,9 7,9 - 11 6 NW 0,0
18.05.2018 13:00:00 12,6 9,3 - 13 7 W 0,0
18.05.2018 12:00:00 11,8 9,0 - 9 5 W 0,0
18.05.2018 11:00:00 11,3 6,0 - 13 7 W 0,0
18.05.2018 10:00:00 11,9 6,6 12,0 11 6 W 0,0
18.05.2018 09:00:00 11,8 4,2 - 4 2 SSE 0,0
18.05.2018 08:00:00 10,0 6,0 - 5 3 E 0,0
18.05.2018 07:00:00 8,9 5,5 - 9 5 E 0,0
18.05.2018 06:00:00 7,5 5,7 - 8 4 ENE 0,0
18.05.2018 05:00:00 6,0 4,0 - 0 0 N 0,0
18.05.2018 04:00:00 8,3 4,2 - 13 7 SE 0,0
18.05.2018 03:00:00 6,9 4,6 - 8 4 E 0,0
18.05.2018 02:00:00 7,2 4,3 - 2 1 N 0,0
18.05.2018 01:00:00 8,7 5,6 - 9 5 E 0,0
18.05.2018 00:00:00 9,3 5,1 - 13 7 ENE 0,0
17.05.2018 23:00:00 11,6 4,1 - 15 8 SSE 0,0
17.05.2018 22:00:00 10,4 5,2 - 5 3 SW 0,0
17.05.2018 21:00:00 12,0 6,2 - 5 3 SW 0,0
17.05.2018 20:00:00 14,6 6,2 - 13 7 WSW 0,0
17.05.2018 19:00:00 15,2 5,6 - 16 9 W 0,0
17.05.2018 18:00:00 16,5 6,5 - 16 9 WSW 0,0
17.05.2018 17:00:00 17,5 6,0 - 13 7 W 0,0
17.05.2018 16:00:00 16,4 6,2 - 18 10 WSW 0,0
17.05.2018 15:00:00 15,3 6,5 - 21 11 W 0,0
17.05.2018 14:00:00 13,8 7,4 - 13 7 WNW 0,0
17.05.2018 13:00:00 12,4 6,1 - 13 7 NW 0,0
17.05.2018 12:00:00 13,2 7,0 - 13 7 WNW 0,0
17.05.2018 11:00:00 12,4 7,0 - 11 6 W 0,0
17.05.2018 10:00:00 12,1 6,6 11,7 9 5 N 0,0
17.05.2018 09:00:00 10,2 6,3 - 9 5 NE 0,0
17.05.2018 08:00:00 8,2 6,2 - 11 6 ENE 0,0
17.05.2018 07:00:00 6,0 5,4 - 8 4 E 0,0
17.05.2018 06:00:00 5,2 4,8 - 9 5 ENE 0,0
17.05.2018 05:00:00 3,2 2,7 - 0 0 N 0,0
17.05.2018 04:00:00 3,3 2,6 - 2 1 SE 0,0
17.05.2018 03:00:00 3,7 3,0 - 2 1 S 0,0
17.05.2018 02:00:00 4,5 3,6 - 2 1 W 0,0

tt = temperature
td = dewpoint
tt -20cm = temperature -20cm
ff = wind speed
dd = wind direction
rr = precipitation

Next stations